sensor_id;sensor_type;location;lat;lon;timestamp;P1;durP1;ratioP1;P2;durP2;ratioP2
48987;SDS011;34799;51.440;-2.534;2023-09-30T00:00:33;14.18;;;2.55;;
48987;SDS011;34799;51.440;-2.534;2023-09-30T00:03:03;11.95;;;1.67;;
48987;SDS011;34799;51.440;-2.534;2023-09-30T00:05:31;8.07;;;1.50;;
48987;SDS011;34799;51.440;-2.534;2023-09-30T00:07:59;9.93;;;2.47;;
48987;SDS011;34799;51.440;-2.534;2023-09-30T00:10:27;8.45;;;1.70;;
48987;SDS011;34799;51.440;-2.534;2023-09-30T00:12:55;17.65;;;2.35;;
48987;SDS011;34799;51.440;-2.534;2023-09-30T00:15:23;8.85;;;1.15;;
48987;SDS011;34799;51.440;-2.534;2023-09-30T00:17:51;8.23;;;1.35;;
48987;SDS011;34799;51.440;-2.534;2023-09-30T00:20:18;10.38;;;1.63;;
48987;SDS011;34799;51.440;-2.534;2023-09-30T00:22:45;9.10;;;1.52;;
48987;SDS011;34799;51.440;-2.534;2023-09-30T00:25:13;10.93;;;2.20;;
48987;SDS011;34799;51.440;-2.534;2023-09-30T00:27:41;14.57;;;3.28;;
48987;SDS011;34799;51.440;-2.534;2023-09-30T00:30:09;10.98;;;2.42;;
48987;SDS011;34799;51.440;-2.534;2023-09-30T00:32:37;12.68;;;3.03;;
48987;SDS011;34799;51.440;-2.534;2023-09-30T00:35:06;14.95;;;3.47;;
48987;SDS011;34799;51.440;-2.534;2023-09-30T00:37:37;13.40;;;2.42;;
48987;SDS011;34799;51.440;-2.534;2023-09-30T00:40:05;13.05;;;2.00;;
48987;SDS011;34799;51.440;-2.534;2023-09-30T00:42:33;11.48;;;1.30;;
48987;SDS011;34799;51.440;-2.534;2023-09-30T00:45:00;8.70;;;1.83;;
48987;SDS011;34799;51.440;-2.534;2023-09-30T00:47:27;14.82;;;2.00;;
48987;SDS011;34799;51.440;-2.534;2023-09-30T00:49:55;8.25;;;1.90;;
48987;SDS011;34799;51.440;-2.534;2023-09-30T00:52:23;14.20;;;2.53;;
48987;SDS011;34799;51.440;-2.534;2023-09-30T00:54:51;10.77;;;2.15;;
48987;SDS011;34799;51.440;-2.534;2023-09-30T00:57:21;13.30;;;2.05;;
48987;SDS011;34799;51.440;-2.534;2023-09-30T00:59:49;13.65;;;3.20;;
48987;SDS011;34799;51.440;-2.534;2023-09-30T01:02:17;11.43;;;1.77;;
48987;SDS011;34799;51.440;-2.534;2023-09-30T01:04:45;9.90;;;1.75;;
48987;SDS011;34799;51.440;-2.534;2023-09-30T01:07:12;11.23;;;1.77;;
48987;SDS011;34799;51.440;-2.534;2023-09-30T01:09:40;12.20;;;2.00;;
48987;SDS011;34799;51.440;-2.534;2023-09-30T01:12:08;12.80;;;2.83;;
48987;SDS011;34799;51.440;-2.534;2023-09-30T01:14:36;14.30;;;3.83;;
48987;SDS011;34799;51.440;-2.534;2023-09-30T01:17:11;20.47;;;4.13;;
48987;SDS011;34799;51.440;-2.534;2023-09-30T01:19:40;13.57;;;3.58;;
48987;SDS011;34799;51.440;-2.534;2023-09-30T01:22:11;16.60;;;2.72;;
48987;SDS011;34799;51.440;-2.534;2023-09-30T01:24:39;16.88;;;3.22;;
48987;SDS011;34799;51.440;-2.534;2023-09-30T01:27:08;11.65;;;2.28;;
48987;SDS011;34799;51.440;-2.534;2023-09-30T01:29:35;12.35;;;2.25;;
48987;SDS011;34799;51.440;-2.534;2023-09-30T01:32:05;12.85;;;2.63;;
48987;SDS011;34799;51.440;-2.534;2023-09-30T01:34:36;14.18;;;1.70;;
48987;SDS011;34799;51.440;-2.534;2023-09-30T01:37:03;8.63;;;1.50;;
48987;SDS011;34799;51.440;-2.534;2023-09-30T01:39:31;9.07;;;1.58;;
48987;SDS011;34799;51.440;-2.534;2023-09-30T01:41:59;9.93;;;1.00;;
48987;SDS011;34799;51.440;-2.534;2023-09-30T01:44:26;12.18;;;1.67;;
48987;SDS011;34799;51.440;-2.534;2023-09-30T01:46:53;8.10;;;1.38;;
48987;SDS011;34799;51.440;-2.534;2023-09-30T01:49:21;8.88;;;1.20;;
48987;SDS011;34799;51.440;-2.534;2023-09-30T01:51:50;8.80;;;1.85;;
48987;SDS011;34799;51.440;-2.534;2023-09-30T01:54:17;9.68;;;1.05;;
48987;SDS011;34799;51.440;-2.534;2023-09-30T01:56:44;13.13;;;1.20;;
48987;SDS011;34799;51.440;-2.534;2023-09-30T01:59:11;12.40;;;1.10;;
48987;SDS011;34799;51.440;-2.534;2023-09-30T02:01:39;7.65;;;1.30;;
48987;SDS011;34799;51.440;-2.534;2023-09-30T02:04:06;6.50;;;1.52;;
48987;SDS011;34799;51.440;-2.534;2023-09-30T02:06:34;10.32;;;1.92;;
48987;SDS011;34799;51.440;-2.534;2023-09-30T02:09:02;12.43;;;1.33;;
48987;SDS011;34799;51.440;-2.534;2023-09-30T02:11:31;11.02;;;1.80;;
48987;SDS011;34799;51.440;-2.534;2023-09-30T02:13:59;11.35;;;1.33;;
48987;SDS011;34799;51.440;-2.534;2023-09-30T02:16:28;10.73;;;2.08;;
48987;SDS011;34799;51.440;-2.534;2023-09-30T02:18:55;8.95;;;1.00;;
48987;SDS011;34799;51.440;-2.534;2023-09-30T02:21:23;7.43;;;1.00;;
48987;SDS011;34799;51.440;-2.534;2023-09-30T02:23:51;5.90;;;0.77;;
48987;SDS011;34799;51.440;-2.534;2023-09-30T02:26:21;8.27;;;1.08;;
48987;SDS011;34799;51.440;-2.534;2023-09-30T02:28:51;15.52;;;4.03;;
48987;SDS011;34799;51.440;-2.534;2023-09-30T02:31:20;14.65;;;4.07;;
48987;SDS011;34799;51.440;-2.534;2023-09-30T02:33:47;13.48;;;2.13;;
48987;SDS011;34799;51.440;-2.534;2023-09-30T02:36:15;23.27;;;3.55;;
48987;SDS011;34799;51.440;-2.534;2023-09-30T02:38:42;13.32;;;1.92;;
48987;SDS011;34799;51.440;-2.534;2023-09-30T02:41:10;8.52;;;2.20;;
48987;SDS011;34799;51.440;-2.534;2023-09-30T02:43:37;6.57;;;1.10;;
48987;SDS011;34799;51.440;-2.534;2023-09-30T02:46:04;7.90;;;1.13;;
48987;SDS011;34799;51.440;-2.534;2023-09-30T02:48:32;9.02;;;1.20;;
48987;SDS011;34799;51.440;-2.534;2023-09-30T02:51:00;10.35;;;1.70;;
48987;SDS011;34799;51.440;-2.534;2023-09-30T02:53:27;10.18;;;1.10;;
48987;SDS011;34799;51.440;-2.534;2023-09-30T02:55:55;8.13;;;1.08;;
48987;SDS011;34799;51.440;-2.534;2023-09-30T02:58:26;9.43;;;0.95;;
48987;SDS011;34799;51.440;-2.534;2023-09-30T03:00:55;11.23;;;1.20;;
48987;SDS011;34799;51.440;-2.534;2023-09-30T03:03:22;5.53;;;0.80;;
48987;SDS011;34799;51.440;-2.534;2023-09-30T03:05:52;8.13;;;0.70;;
48987;SDS011;34799;51.440;-2.534;2023-09-30T03:08:20;7.95;;;0.90;;
48987;SDS011;34799;51.440;-2.534;2023-09-30T03:10:48;6.68;;;0.70;;
48987;SDS011;34799;51.440;-2.534;2023-09-30T03:13:15;9.35;;;1.65;;
48987;SDS011;34799;51.440;-2.534;2023-09-30T03:15:45;12.20;;;1.20;;
48987;SDS011;34799;51.440;-2.534;2023-09-30T03:18:12;11.18;;;1.33;;
48987;SDS011;34799;51.440;-2.534;2023-09-30T03:20:40;10.52;;;0.73;;
48987;SDS011;34799;51.440;-2.534;2023-09-30T03:23:09;4.53;;;0.60;;
48987;SDS011;34799;51.440;-2.534;2023-09-30T03:25:38;9.88;;;1.15;;
48987;SDS011;34799;51.440;-2.534;2023-09-30T03:28:05;11.45;;;1.67;;
48987;SDS011;34799;51.440;-2.534;2023-09-30T03:30:32;7.88;;;1.17;;
48987;SDS011;34799;51.440;-2.534;2023-09-30T03:33:00;11.65;;;1.05;;
48987;SDS011;34799;51.440;-2.534;2023-09-30T03:35:31;7.72;;;0.77;;
48987;SDS011;34799;51.440;-2.534;2023-09-30T03:37:59;7.28;;;1.27;;
48987;SDS011;34799;51.440;-2.534;2023-09-30T03:40:30;9.63;;;0.90;;
48987;SDS011;34799;51.440;-2.534;2023-09-30T03:43:00;11.32;;;0.95;;
48987;SDS011;34799;51.440;-2.534;2023-09-30T03:45:28;10.90;;;1.10;;
48987;SDS011;34799;51.440;-2.534;2023-09-30T03:47:55;9.80;;;1.00;;
48987;SDS011;34799;51.440;-2.534;2023-09-30T03:50:23;8.02;;;0.90;;
48987;SDS011;34799;51.440;-2.534;2023-09-30T03:52:51;6.95;;;0.73;;
48987;SDS011;34799;51.440;-2.534;2023-09-30T03:55:27;10.38;;;1.50;;
48987;SDS011;34799;51.440;-2.534;2023-09-30T03:57:56;9.50;;;1.90;;
48987;SDS011;34799;51.440;-2.534;2023-09-30T04:00:24;14.30;;;2.83;;
48987;SDS011;34799;51.440;-2.534;2023-09-30T04:02:52;9.73;;;2.40;;
48987;SDS011;34799;51.440;-2.534;2023-09-30T04:05:25;16.50;;;2.80;;
48987;SDS011;34799;51.440;-2.534;2023-09-30T04:07:56;13.85;;;2.70;;
48987;SDS011;34799;51.440;-2.534;2023-09-30T04:10:24;9.50;;;2.13;;
48987;SDS011;34799;51.440;-2.534;2023-09-30T04:12:52;10.88;;;2.22;;
48987;SDS011;34799;51.440;-2.534;2023-09-30T04:15:21;9.35;;;1.42;;
48987;SDS011;34799;51.440;-2.534;2023-09-30T04:17:50;7.80;;;0.98;;
48987;SDS011;34799;51.440;-2.534;2023-09-30T04:20:20;9.00;;;1.08;;
48987;SDS011;34799;51.440;-2.534;2023-09-30T04:22:49;7.80;;;1.20;;
48987;SDS011;34799;51.440;-2.534;2023-09-30T04:25:17;10.55;;;2.22;;
48987;SDS011;34799;51.440;-2.534;2023-09-30T04:27:45;12.13;;;1.73;;
48987;SDS011;34799;51.440;-2.534;2023-09-30T04:30:14;6.38;;;0.98;;
48987;SDS011;34799;51.440;-2.534;2023-09-30T04:32:41;7.55;;;0.80;;
48987;SDS011;34799;51.440;-2.534;2023-09-30T04:35:09;9.77;;;1.17;;
48987;SDS011;34799;51.440;-2.534;2023-09-30T04:37:37;9.65;;;1.00;;
48987;SDS011;34799;51.440;-2.534;2023-09-30T04:40:05;8.30;;;1.10;;
48987;SDS011;34799;51.440;-2.534;2023-09-30T04:42:42;11.20;;;1.63;;
48987;SDS011;34799;51.440;-2.534;2023-09-30T04:45:10;7.40;;;0.85;;
48987;SDS011;34799;51.440;-2.534;2023-09-30T04:47:39;7.03;;;0.88;;
48987;SDS011;34799;51.440;-2.534;2023-09-30T04:50:06;6.72;;;0.80;;
48987;SDS011;34799;51.440;-2.534;2023-09-30T04:52:34;10.45;;;1.00;;
48987;SDS011;34799;51.440;-2.534;2023-09-30T04:55:01;12.07;;;1.63;;
48987;SDS011;34799;51.440;-2.534;2023-09-30T04:57:30;8.05;;;0.90;;
48987;SDS011;34799;51.440;-2.534;2023-09-30T04:59:58;9.25;;;1.23;;
48987;SDS011;34799;51.440;-2.534;2023-09-30T05:02:25;7.28;;;1.10;;
48987;SDS011;34799;51.440;-2.534;2023-09-30T05:04:54;13.13;;;1.80;;
48987;SDS011;34799;51.440;-2.534;2023-09-30T05:07:21;19.73;;;3.67;;
48987;SDS011;34799;51.440;-2.534;2023-09-30T05:09:49;16.77;;;3.17;;
48987;SDS011;34799;51.440;-2.534;2023-09-30T05:12:17;16.63;;;2.33;;
48987;SDS011;34799;51.440;-2.534;2023-09-30T05:14:45;15.25;;;2.25;;
48987;SDS011;34799;51.440;-2.534;2023-09-30T05:17:13;14.82;;;2.97;;
48987;SDS011;34799;51.440;-2.534;2023-09-30T05:19:41;13.25;;;1.80;;
48987;SDS011;34799;51.440;-2.534;2023-09-30T05:22:09;11.77;;;1.38;;
48987;SDS011;34799;51.440;-2.534;2023-09-30T05:24:38;8.70;;;1.05;;
48987;SDS011;34799;51.440;-2.534;2023-09-30T05:27:05;12.43;;;2.13;;
48987;SDS011;34799;51.440;-2.534;2023-09-30T05:29:33;14.73;;;2.53;;
48987;SDS011;34799;51.440;-2.534;2023-09-30T05:32:01;15.25;;;2.38;;
48987;SDS011;34799;51.440;-2.534;2023-09-30T05:34:29;7.93;;;1.92;;
48987;SDS011;34799;51.440;-2.534;2023-09-30T05:36:57;12.50;;;2.35;;
48987;SDS011;34799;51.440;-2.534;2023-09-30T05:39:25;8.88;;;1.63;;
48987;SDS011;34799;51.440;-2.534;2023-09-30T05:41:53;9.82;;;1.30;;
48987;SDS011;34799;51.440;-2.534;2023-09-30T05:44:22;11.43;;;1.38;;
48987;SDS011;34799;51.440;-2.534;2023-09-30T05:46:49;7.85;;;1.65;;
48987;SDS011;34799;51.440;-2.534;2023-09-30T05:49:17;15.13;;;1.52;;
48987;SDS011;34799;51.440;-2.534;2023-09-30T05:51:45;10.18;;;1.00;;
48987;SDS011;34799;51.440;-2.534;2023-09-30T05:54:13;6.75;;;1.55;;
48987;SDS011;34799;51.440;-2.534;2023-09-30T05:56:41;11.43;;;1.33;;
48987;SDS011;34799;51.440;-2.534;2023-09-30T05:59:09;6.70;;;1.20;;
48987;SDS011;34799;51.440;-2.534;2023-09-30T06:01:36;10.30;;;1.67;;
48987;SDS011;34799;51.440;-2.534;2023-09-30T06:04:05;11.98;;;1.00;;
48987;SDS011;34799;51.440;-2.534;2023-09-30T06:06:33;13.05;;;1.40;;
48987;SDS011;34799;51.440;-2.534;2023-09-30T06:09:00;10.02;;;1.33;;
48987;SDS011;34799;51.440;-2.534;2023-09-30T06:11:28;13.18;;;1.75;;
48987;SDS011;34799;51.440;-2.534;2023-09-30T06:13:57;10.88;;;1.45;;
48987;SDS011;34799;51.440;-2.534;2023-09-30T06:16:27;23.90;;;2.75;;
48987;SDS011;34799;51.440;-2.534;2023-09-30T06:18:54;18.00;;;1.88;;
48987;SDS011;34799;51.440;-2.534;2023-09-30T06:21:23;13.57;;;2.03;;
48987;SDS011;34799;51.440;-2.534;2023-09-30T06:23:56;16.50;;;2.10;;
48987;SDS011;34799;51.440;-2.534;2023-09-30T06:26:24;21.15;;;3.22;;
48987;SDS011;34799;51.440;-2.534;2023-09-30T06:28:52;19.25;;;3.50;;
48987;SDS011;34799;51.440;-2.534;2023-09-30T06:31:22;18.85;;;2.65;;
48987;SDS011;34799;51.440;-2.534;2023-09-30T06:33:49;19.50;;;2.45;;
48987;SDS011;34799;51.440;-2.534;2023-09-30T06:36:17;17.10;;;2.55;;
48987;SDS011;34799;51.440;-2.534;2023-09-30T06:38:45;14.73;;;2.15;;
48987;SDS011;34799;51.440;-2.534;2023-09-30T06:41:15;16.00;;;2.25;;
48987;SDS011;34799;51.440;-2.534;2023-09-30T06:43:43;15.30;;;2.75;;
48987;SDS011;34799;51.440;-2.534;2023-09-30T06:46:11;13.40;;;3.40;;
48987;SDS011;34799;51.440;-2.534;2023-09-30T06:48:39;21.30;;;2.50;;
48987;SDS011;34799;51.440;-2.534;2023-09-30T06:51:07;18.52;;;2.42;;
48987;SDS011;34799;51.440;-2.534;2023-09-30T06:53:35;13.85;;;2.25;;
48987;SDS011;34799;51.440;-2.534;2023-09-30T06:56:04;10.25;;;2.05;;
48987;SDS011;34799;51.440;-2.534;2023-09-30T06:58:32;12.90;;;2.13;;
48987;SDS011;34799;51.440;-2.534;2023-09-30T07:00:59;11.10;;;1.98;;
48987;SDS011;34799;51.440;-2.534;2023-09-30T07:03:26;9.15;;;1.20;;
48987;SDS011;34799;51.440;-2.534;2023-09-30T07:05:54;14.63;;;1.10;;
48987;SDS011;34799;51.440;-2.534;2023-09-30T07:08:22;14.77;;;1.50;;
48987;SDS011;34799;51.440;-2.534;2023-09-30T07:10:50;12.77;;;2.38;;
48987;SDS011;34799;51.440;-2.534;2023-09-30T07:13:19;14.15;;;2.25;;
48987;SDS011;34799;51.440;-2.534;2023-09-30T07:15:47;11.50;;;2.33;;
48987;SDS011;34799;51.440;-2.534;2023-09-30T07:18:14;19.50;;;3.00;;
48987;SDS011;34799;51.440;-2.534;2023-09-30T07:20:42;15.68;;;3.10;;
48987;SDS011;34799;51.440;-2.534;2023-09-30T07:23:10;12.10;;;1.70;;
48987;SDS011;34799;51.440;-2.534;2023-09-30T07:25:45;11.75;;;1.10;;
48987;SDS011;34799;51.440;-2.534;2023-09-30T07:28:13;14.07;;;1.20;;
48987;SDS011;34799;51.440;-2.534;2023-09-30T07:30:41;7.53;;;1.30;;
48987;SDS011;34799;51.440;-2.534;2023-09-30T07:33:09;8.75;;;1.30;;
48987;SDS011;34799;51.440;-2.534;2023-09-30T07:35:37;9.32;;;1.08;;
48987;SDS011;34799;51.440;-2.534;2023-09-30T07:38:05;7.43;;;0.98;;
48987;SDS011;34799;51.440;-2.534;2023-09-30T07:40:34;10.02;;;1.67;;
48987;SDS011;34799;51.440;-2.534;2023-09-30T07:43:02;5.72;;;0.93;;
48987;SDS011;34799;51.440;-2.534;2023-09-30T07:45:30;10.10;;;1.00;;
48987;SDS011;34799;51.440;-2.534;2023-09-30T07:47:58;7.90;;;0.80;;
48987;SDS011;34799;51.440;-2.534;2023-09-30T07:50:26;10.57;;;1.10;;
48987;SDS011;34799;51.440;-2.534;2023-09-30T07:52:54;7.10;;;1.10;;
48987;SDS011;34799;51.440;-2.534;2023-09-30T07:55:22;12.30;;;1.08;;
48987;SDS011;34799;51.440;-2.534;2023-09-30T07:57:50;10.85;;;1.10;;
48987;SDS011;34799;51.440;-2.534;2023-09-30T08:00:18;12.75;;;1.33;;
48987;SDS011;34799;51.440;-2.534;2023-09-30T08:02:47;9.00;;;1.10;;
48987;SDS011;34799;51.440;-2.534;2023-09-30T08:05:17;7.93;;;1.17;;
48987;SDS011;34799;51.440;-2.534;2023-09-30T08:07:45;8.10;;;1.25;;
48987;SDS011;34799;51.440;-2.534;2023-09-30T08:10:13;7.10;;;0.80;;
48987;SDS011;34799;51.440;-2.534;2023-09-30T08:12:43;7.10;;;1.00;;
48987;SDS011;34799;51.440;-2.534;2023-09-30T08:15:16;9.80;;;1.05;;
48987;SDS011;34799;51.440;-2.534;2023-09-30T08:17:44;10.82;;;1.10;;
48987;SDS011;34799;51.440;-2.534;2023-09-30T08:20:12;11.07;;;1.65;;
48987;SDS011;34799;51.440;-2.534;2023-09-30T08:22:40;13.27;;;2.00;;
48987;SDS011;34799;51.440;-2.534;2023-09-30T08:25:09;4.75;;;0.98;;
48987;SDS011;34799;51.440;-2.534;2023-09-30T08:27:37;8.05;;;0.85;;
48987;SDS011;34799;51.440;-2.534;2023-09-30T08:30:06;9.40;;;1.00;;
48987;SDS011;34799;51.440;-2.534;2023-09-30T08:32:35;9.40;;;1.00;;
48987;SDS011;34799;51.440;-2.534;2023-09-30T08:35:03;7.03;;;1.00;;
48987;SDS011;34799;51.440;-2.534;2023-09-30T08:37:31;11.63;;;1.42;;
48987;SDS011;34799;51.440;-2.534;2023-09-30T08:39:59;11.52;;;0.90;;
48987;SDS011;34799;51.440;-2.534;2023-09-30T08:42:27;13.98;;;0.90;;
48987;SDS011;34799;51.440;-2.534;2023-09-30T08:45:00;8.50;;;1.65;;
48987;SDS011;34799;51.440;-2.534;2023-09-30T08:47:27;9.65;;;0.90;;
48987;SDS011;34799;51.440;-2.534;2023-09-30T08:49:56;17.63;;;1.70;;
48987;SDS011;34799;51.440;-2.534;2023-09-30T08:52:34;7.65;;;1.65;;
48987;SDS011;34799;51.440;-2.534;2023-09-30T08:55:04;7.57;;;0.82;;
48987;SDS011;34799;51.440;-2.534;2023-09-30T08:57:36;12.38;;;1.15;;
48987;SDS011;34799;51.440;-2.534;2023-09-30T09:00:12;7.85;;;1.83;;
48987;SDS011;34799;51.440;-2.534;2023-09-30T09:02:40;11.43;;;0.90;;
48987;SDS011;34799;51.440;-2.534;2023-09-30T09:05:09;9.55;;;1.15;;
48987;SDS011;34799;51.440;-2.534;2023-09-30T09:07:37;7.13;;;1.40;;
48987;SDS011;34799;51.440;-2.534;2023-09-30T09:10:08;7.70;;;1.10;;
48987;SDS011;34799;51.440;-2.534;2023-09-30T09:12:37;7.18;;;1.10;;
48987;SDS011;34799;51.440;-2.534;2023-09-30T09:15:06;11.57;;;0.68;;
48987;SDS011;34799;51.440;-2.534;2023-09-30T09:17:42;11.02;;;1.00;;
48987;SDS011;34799;51.440;-2.534;2023-09-30T09:20:10;8.45;;;0.82;;
48987;SDS011;34799;51.440;-2.534;2023-09-30T09:22:46;10.70;;;1.05;;
48987;SDS011;34799;51.440;-2.534;2023-09-30T09:25:18;8.15;;;1.10;;
48987;SDS011;34799;51.440;-2.534;2023-09-30T09:27:46;10.02;;;0.80;;
48987;SDS011;34799;51.440;-2.534;2023-09-30T09:30:18;9.18;;;1.25;;
48987;SDS011;34799;51.440;-2.534;2023-09-30T09:32:58;11.75;;;1.73;;
48987;SDS011;34799;51.440;-2.534;2023-09-30T09:35:32;7.50;;;0.77;;
48987;SDS011;34799;51.440;-2.534;2023-09-30T09:38:02;8.80;;;0.90;;
48987;SDS011;34799;51.440;-2.534;2023-09-30T09:40:30;8.52;;;0.82;;
48987;SDS011;34799;51.440;-2.534;2023-09-30T09:43:02;8.32;;;1.10;;
48987;SDS011;34799;51.440;-2.534;2023-09-30T09:45:33;10.43;;;1.42;;
48987;SDS011;34799;51.440;-2.534;2023-09-30T09:48:01;7.65;;;0.90;;
48987;SDS011;34799;51.440;-2.534;2023-09-30T09:50:31;7.32;;;0.85;;
48987;SDS011;34799;51.440;-2.534;2023-09-30T09:52:59;7.82;;;1.50;;
48987;SDS011;34799;51.440;-2.534;2023-09-30T09:55:27;9.32;;;0.95;;
48987;SDS011;34799;51.440;-2.534;2023-09-30T09:57:54;8.68;;;0.90;;
48987;SDS011;34799;51.440;-2.534;2023-09-30T10:00:22;8.35;;;1.17;;
48987;SDS011;34799;51.440;-2.534;2023-09-30T10:02:53;8.05;;;0.73;;
48987;SDS011;34799;51.440;-2.534;2023-09-30T10:05:20;9.00;;;0.88;;
48987;SDS011;34799;51.440;-2.534;2023-09-30T10:07:54;10.30;;;1.10;;
48987;SDS011;34799;51.440;-2.534;2023-09-30T10:10:31;11.52;;;1.67;;
48987;SDS011;34799;51.440;-2.534;2023-09-30T10:13:03;8.15;;;1.10;;
48987;SDS011;34799;51.440;-2.534;2023-09-30T10:18:03;9.10;;;1.55;;
48987;SDS011;34799;51.440;-2.534;2023-09-30T10:20:41;10.55;;;0.80;;
48987;SDS011;34799;51.440;-2.534;2023-09-30T10:23:17;8.88;;;0.65;;
48987;SDS011;34799;51.440;-2.534;2023-09-30T10:26:32;10.52;;;0.68;;
48987;SDS011;34799;51.440;-2.534;2023-09-30T10:28:52;14.88;;;1.10;;
48987;SDS011;34799;51.440;-2.534;2023-09-30T10:31:20;7.97;;;1.13;;
48987;SDS011;34799;51.440;-2.534;2023-09-30T10:38:55;5.78;;;0.50;;
48987;SDS011;34799;51.440;-2.534;2023-09-30T10:46:55;4.30;;;0.50;;
48987;SDS011;34799;51.440;-2.534;2023-09-30T10:54:22;7.35;;;0.65;;
48987;SDS011;34799;51.440;-2.534;2023-09-30T10:56:56;10.10;;;0.90;;
48987;SDS011;34799;51.440;-2.534;2023-09-30T10:59:26;3.78;;;0.40;;
48987;SDS011;34799;51.440;-2.534;2023-09-30T11:01:54;10.85;;;0.80;;
48987;SDS011;34799;51.440;-2.534;2023-09-30T11:04:21;7.20;;;0.57;;
48987;SDS011;34799;51.440;-2.534;2023-09-30T11:06:48;10.27;;;1.17;;
48987;SDS011;34799;51.440;-2.534;2023-09-30T11:09:21;4.72;;;0.40;;
48987;SDS011;34799;51.440;-2.534;2023-09-30T11:11:51;5.07;;;0.40;;
48987;SDS011;34799;51.440;-2.534;2023-09-30T11:16:50;6.75;;;1.05;;
48987;SDS011;34799;51.440;-2.534;2023-09-30T11:19:20;5.40;;;0.68;;
48987;SDS011;34799;51.440;-2.534;2023-09-30T11:21:48;7.07;;;0.70;;
48987;SDS011;34799;51.440;-2.534;2023-09-30T11:24:16;5.72;;;0.50;;
48987;SDS011;34799;51.440;-2.534;2023-09-30T11:26:44;6.03;;;0.55;;
48987;SDS011;34799;51.440;-2.534;2023-09-30T11:29:13;5.95;;;0.73;;
48987;SDS011;34799;51.440;-2.534;2023-09-30T11:31:47;7.20;;;0.60;;
48987;SDS011;34799;51.440;-2.534;2023-09-30T11:34:15;7.55;;;1.02;;
48987;SDS011;34799;51.440;-2.534;2023-09-30T11:36:50;7.20;;;0.60;;
48987;SDS011;34799;51.440;-2.534;2023-09-30T11:39:22;7.80;;;0.60;;
48987;SDS011;34799;51.440;-2.534;2023-09-30T11:41:52;9.18;;;0.70;;
48987;SDS011;34799;51.440;-2.534;2023-09-30T11:44:21;6.47;;;0.60;;
48987;SDS011;34799;51.440;-2.534;2023-09-30T11:46:49;8.70;;;1.05;;
48987;SDS011;34799;51.440;-2.534;2023-09-30T11:51:55;10.13;;;1.60;;
48987;SDS011;34799;51.440;-2.534;2023-09-30T11:54:31;6.63;;;0.77;;
48987;SDS011;34799;51.440;-2.534;2023-09-30T11:57:16;12.68;;;1.15;;
48987;SDS011;34799;51.440;-2.534;2023-09-30T11:59:45;5.45;;;0.80;;
48987;SDS011;34799;51.440;-2.534;2023-09-30T12:02:13;8.68;;;0.73;;
48987;SDS011;34799;51.440;-2.534;2023-09-30T12:04:42;7.88;;;0.82;;
48987;SDS011;34799;51.440;-2.534;2023-09-30T12:07:10;10.77;;;1.23;;
48987;SDS011;34799;51.440;-2.534;2023-09-30T12:09:38;10.43;;;1.15;;
48987;SDS011;34799;51.440;-2.534;2023-09-30T12:12:06;4.15;;;1.25;;
48987;SDS011;34799;51.440;-2.534;2023-09-30T12:14:38;5.75;;;0.90;;
48987;SDS011;34799;51.440;-2.534;2023-09-30T12:17:06;3.60;;;0.90;;
48987;SDS011;34799;51.440;-2.534;2023-09-30T12:19:37;3.83;;;0.70;;
48987;SDS011;34799;51.440;-2.534;2023-09-30T12:22:04;9.98;;;1.63;;
48987;SDS011;34799;51.440;-2.534;2023-09-30T12:24:32;5.35;;;0.55;;
48987;SDS011;34799;51.440;-2.534;2023-09-30T12:26:59;3.28;;;0.45;;
48987;SDS011;34799;51.440;-2.534;2023-09-30T12:29:26;5.03;;;0.40;;
48987;SDS011;34799;51.440;-2.534;2023-09-30T12:31:54;4.85;;;0.70;;
48987;SDS011;34799;51.440;-2.534;2023-09-30T12:34:22;5.43;;;0.63;;
48987;SDS011;34799;51.440;-2.534;2023-09-30T12:36:53;6.18;;;0.50;;
48987;SDS011;34799;51.440;-2.534;2023-09-30T12:39:24;4.07;;;0.50;;
48987;SDS011;34799;51.440;-2.534;2023-09-30T12:41:53;5.25;;;0.50;;
48987;SDS011;34799;51.440;-2.534;2023-09-30T12:44:21;3.55;;;0.35;;
48987;SDS011;34799;51.440;-2.534;2023-09-30T12:46:50;5.78;;;0.52;;
48987;SDS011;34799;51.440;-2.534;2023-09-30T12:49:17;4.88;;;0.38;;
48987;SDS011;34799;51.440;-2.534;2023-09-30T12:51:45;5.90;;;0.40;;
48987;SDS011;34799;51.440;-2.534;2023-09-30T12:54:14;5.38;;;0.57;;
48987;SDS011;34799;51.440;-2.534;2023-09-30T12:56:44;2.88;;;0.35;;
48987;SDS011;34799;51.440;-2.534;2023-09-30T12:59:13;3.08;;;0.38;;
48987;SDS011;34799;51.440;-2.534;2023-09-30T13:01:40;4.00;;;0.50;;
48987;SDS011;34799;51.440;-2.534;2023-09-30T13:04:07;6.68;;;0.57;;
48987;SDS011;34799;51.440;-2.534;2023-09-30T13:06:35;5.97;;;0.43;;
48987;SDS011;34799;51.440;-2.534;2023-09-30T13:09:03;11.18;;;0.60;;
48987;SDS011;34799;51.440;-2.534;2023-09-30T13:11:32;9.18;;;1.30;;
48987;SDS011;34799;51.440;-2.534;2023-09-30T13:14:02;6.65;;;0.60;;
48987;SDS011;34799;51.440;-2.534;2023-09-30T13:16:29;6.07;;;0.60;;
48987;SDS011;34799;51.440;-2.534;2023-09-30T13:18:56;6.70;;;0.70;;
48987;SDS011;34799;51.440;-2.534;2023-09-30T13:21:24;5.28;;;0.68;;
48987;SDS011;34799;51.440;-2.534;2023-09-30T13:23:52;8.88;;;1.15;;
48987;SDS011;34799;51.440;-2.534;2023-09-30T13:26:20;8.25;;;0.73;;
48987;SDS011;34799;51.440;-2.534;2023-09-30T13:28:47;7.82;;;0.70;;
48987;SDS011;34799;51.440;-2.534;2023-09-30T13:31:15;6.90;;;0.60;;
48987;SDS011;34799;51.440;-2.534;2023-09-30T13:33:44;5.65;;;0.90;;
48987;SDS011;34799;51.440;-2.534;2023-09-30T13:36:12;3.85;;;0.70;;
48987;SDS011;34799;51.440;-2.534;2023-09-30T13:38:40;8.82;;;0.70;;
48987;SDS011;34799;51.440;-2.534;2023-09-30T13:41:07;8.23;;;0.57;;
48987;SDS011;34799;51.440;-2.534;2023-09-30T13:43:35;5.10;;;0.80;;
48987;SDS011;34799;51.440;-2.534;2023-09-30T13:46:03;8.10;;;1.35;;
48987;SDS011;34799;51.440;-2.534;2023-09-30T13:48:34;7.25;;;0.90;;
48987;SDS011;34799;51.440;-2.534;2023-09-30T13:51:03;9.50;;;1.45;;
48987;SDS011;34799;51.440;-2.534;2023-09-30T13:53:34;10.90;;;1.80;;
48987;SDS011;34799;51.440;-2.534;2023-09-30T13:56:01;10.52;;;1.83;;
48987;SDS011;34799;51.440;-2.534;2023-09-30T13:58:33;7.70;;;2.03;;
48987;SDS011;34799;51.440;-2.534;2023-09-30T14:01:01;11.80;;;1.90;;
48987;SDS011;34799;51.440;-2.534;2023-09-30T14:03:29;12.45;;;2.00;;
48987;SDS011;34799;51.440;-2.534;2023-09-30T14:05:57;8.02;;;1.55;;
48987;SDS011;34799;51.440;-2.534;2023-09-30T14:08:25;9.73;;;1.70;;
48987;SDS011;34799;51.440;-2.534;2023-09-30T14:10:53;13.52;;;2.90;;
48987;SDS011;34799;51.440;-2.534;2023-09-30T14:13:21;13.93;;;2.50;;
48987;SDS011;34799;51.440;-2.534;2023-09-30T14:15:48;7.93;;;2.38;;
48987;SDS011;34799;51.440;-2.534;2023-09-30T14:18:14;12.50;;;2.20;;
48987;SDS011;34799;51.440;-2.534;2023-09-30T14:20:41;9.32;;;1.27;;
48987;SDS011;34799;51.440;-2.534;2023-09-30T14:23:09;11.70;;;2.10;;
48987;SDS011;34799;51.440;-2.534;2023-09-30T14:25:36;8.63;;;2.08;;
48987;SDS011;34799;51.440;-2.534;2023-09-30T14:28:03;10.65;;;1.80;;
48987;SDS011;34799;51.440;-2.534;2023-09-30T14:30:30;9.00;;;2.15;;
48987;SDS011;34799;51.440;-2.534;2023-09-30T14:32:58;10.25;;;1.90;;
48987;SDS011;34799;51.440;-2.534;2023-09-30T14:35:26;13.82;;;1.90;;
48987;SDS011;34799;51.440;-2.534;2023-09-30T14:37:54;13.90;;;2.30;;
48987;SDS011;34799;51.440;-2.534;2023-09-30T14:40:23;10.25;;;1.45;;
48987;SDS011;34799;51.440;-2.534;2023-09-30T14:42:50;17.80;;;2.75;;
48987;SDS011;34799;51.440;-2.534;2023-09-30T14:45:18;8.95;;;1.98;;
48987;SDS011;34799;51.440;-2.534;2023-09-30T14:47:46;12.30;;;2.03;;
48987;SDS011;34799;51.440;-2.534;2023-09-30T14:50:13;12.13;;;2.50;;
48987;SDS011;34799;51.440;-2.534;2023-09-30T14:52:42;12.07;;;2.78;;
48987;SDS011;34799;51.440;-2.534;2023-09-30T14:55:09;12.82;;;2.50;;
48987;SDS011;34799;51.440;-2.534;2023-09-30T14:57:37;13.20;;;2.50;;
48987;SDS011;34799;51.440;-2.534;2023-09-30T15:00:05;11.38;;;2.42;;